sensor_id;sensor_type;location;lat;lon;timestamp;P1;durP1;ratioP1;P2;durP2;ratioP2
14191;SDS011;7177;48.572;7.838;2024-01-25T00:01:41;13.03;;;3.70;;
14191;SDS011;7177;48.572;7.838;2024-01-25T00:04:07;16.27;;;3.37;;
14191;SDS011;7177;48.572;7.838;2024-01-25T00:06:32;14.70;;;3.63;;
14191;SDS011;7177;48.572;7.838;2024-01-25T00:08:58;13.60;;;3.60;;
14191;SDS011;7177;48.572;7.838;2024-01-25T00:11:24;9.00;;;3.70;;
14191;SDS011;7177;48.572;7.838;2024-01-25T00:13:49;12.27;;;4.50;;
14191;SDS011;7177;48.572;7.838;2024-01-25T00:16:15;15.63;;;4.33;;
14191;SDS011;7177;48.572;7.838;2024-01-25T00:18:40;10.87;;;4.13;;
14191;SDS011;7177;48.572;7.838;2024-01-25T00:21:06;9.10;;;4.23;;
14191;SDS011;7177;48.572;7.838;2024-01-25T00:23:32;11.83;;;3.30;;
14191;SDS011;7177;48.572;7.838;2024-01-25T00:25:58;6.07;;;2.87;;
14191;SDS011;7177;48.572;7.838;2024-01-25T00:28:25;11.67;;;3.50;;
14191;SDS011;7177;48.572;7.838;2024-01-25T00:30:51;10.97;;;3.47;;
14191;SDS011;7177;48.572;7.838;2024-01-25T00:33:16;10.70;;;3.50;;
14191;SDS011;7177;48.572;7.838;2024-01-25T00:35:42;9.83;;;3.57;;
14191;SDS011;7177;48.572;7.838;2024-01-25T00:38:08;14.07;;;3.73;;
14191;SDS011;7177;48.572;7.838;2024-01-25T00:40:34;9.43;;;3.27;;
14191;SDS011;7177;48.572;7.838;2024-01-25T00:43:00;12.33;;;2.90;;
14191;SDS011;7177;48.572;7.838;2024-01-25T00:45:25;10.83;;;3.13;;
14191;SDS011;7177;48.572;7.838;2024-01-25T00:47:51;6.87;;;2.70;;
14191;SDS011;7177;48.572;7.838;2024-01-25T00:50:17;8.90;;;2.63;;
14191;SDS011;7177;48.572;7.838;2024-01-25T00:52:46;12.20;;;3.30;;
14191;SDS011;7177;48.572;7.838;2024-01-25T00:55:12;9.30;;;3.27;;
14191;SDS011;7177;48.572;7.838;2024-01-25T00:57:39;8.70;;;2.87;;
14191;SDS011;7177;48.572;7.838;2024-01-25T01:00:05;7.63;;;3.13;;
14191;SDS011;7177;48.572;7.838;2024-01-25T01:02:35;9.00;;;3.33;;
14191;SDS011;7177;48.572;7.838;2024-01-25T01:05:02;12.73;;;3.23;;
14191;SDS011;7177;48.572;7.838;2024-01-25T01:07:28;11.67;;;3.13;;
14191;SDS011;7177;48.572;7.838;2024-01-25T01:09:54;8.37;;;3.30;;
14191;SDS011;7177;48.572;7.838;2024-01-25T01:12:19;10.43;;;3.30;;
14191;SDS011;7177;48.572;7.838;2024-01-25T01:14:45;10.60;;;3.30;;
14191;SDS011;7177;48.572;7.838;2024-01-25T01:17:10;5.23;;;2.70;;
14191;SDS011;7177;48.572;7.838;2024-01-25T01:19:36;4.60;;;2.70;;
14191;SDS011;7177;48.572;7.838;2024-01-25T01:22:01;10.33;;;2.73;;
14191;SDS011;7177;48.572;7.838;2024-01-25T01:24:27;6.40;;;2.77;;
14191;SDS011;7177;48.572;7.838;2024-01-25T01:26:53;8.03;;;3.07;;
14191;SDS011;7177;48.572;7.838;2024-01-25T01:29:18;9.93;;;3.57;;
14191;SDS011;7177;48.572;7.838;2024-01-25T01:31:44;10.53;;;3.63;;
14191;SDS011;7177;48.572;7.838;2024-01-25T01:34:10;9.27;;;3.30;;
14191;SDS011;7177;48.572;7.838;2024-01-25T01:36:37;9.10;;;3.60;;
14191;SDS011;7177;48.572;7.838;2024-01-25T01:39:03;9.00;;;3.23;;
14191;SDS011;7177;48.572;7.838;2024-01-25T01:41:28;8.63;;;3.57;;
14191;SDS011;7177;48.572;7.838;2024-01-25T01:43:54;12.07;;;3.87;;
14191;SDS011;7177;48.572;7.838;2024-01-25T01:46:33;15.47;;;4.23;;
14191;SDS011;7177;48.572;7.838;2024-01-25T01:48:59;6.97;;;3.00;;
14191;SDS011;7177;48.572;7.838;2024-01-25T01:51:25;9.07;;;3.20;;
14191;SDS011;7177;48.572;7.838;2024-01-25T01:53:52;19.77;;;3.53;;
14191;SDS011;7177;48.572;7.838;2024-01-25T01:56:19;8.97;;;2.70;;
14191;SDS011;7177;48.572;7.838;2024-01-25T01:58:45;15.77;;;3.83;;
14191;SDS011;7177;48.572;7.838;2024-01-25T02:01:12;12.33;;;3.30;;
14191;SDS011;7177;48.572;7.838;2024-01-25T02:03:38;12.00;;;3.50;;
14191;SDS011;7177;48.572;7.838;2024-01-25T02:06:04;12.57;;;3.07;;
14191;SDS011;7177;48.572;7.838;2024-01-25T02:08:30;14.93;;;3.80;;
14191;SDS011;7177;48.572;7.838;2024-01-25T02:10:56;16.67;;;3.53;;
14191;SDS011;7177;48.572;7.838;2024-01-25T02:13:22;20.27;;;4.33;;
14191;SDS011;7177;48.572;7.838;2024-01-25T02:15:47;13.43;;;3.53;;
14191;SDS011;7177;48.572;7.838;2024-01-25T02:18:13;16.40;;;3.83;;
14191;SDS011;7177;48.572;7.838;2024-01-25T02:20:39;18.07;;;4.30;;
14191;SDS011;7177;48.572;7.838;2024-01-25T02:23:05;19.47;;;4.23;;
14191;SDS011;7177;48.572;7.838;2024-01-25T02:25:31;19.43;;;4.27;;
14191;SDS011;7177;48.572;7.838;2024-01-25T02:27:56;20.47;;;5.40;;
14191;SDS011;7177;48.572;7.838;2024-01-25T02:30:22;21.20;;;5.00;;
14191;SDS011;7177;48.572;7.838;2024-01-25T02:32:47;17.00;;;4.00;;
14191;SDS011;7177;48.572;7.838;2024-01-25T02:35:13;18.90;;;4.23;;
14191;SDS011;7177;48.572;7.838;2024-01-25T02:37:38;18.90;;;4.17;;
14191;SDS011;7177;48.572;7.838;2024-01-25T02:40:04;22.43;;;4.43;;
14191;SDS011;7177;48.572;7.838;2024-01-25T02:42:30;19.83;;;3.63;;
14191;SDS011;7177;48.572;7.838;2024-01-25T02:44:55;14.07;;;3.70;;
14191;SDS011;7177;48.572;7.838;2024-01-25T02:47:21;16.90;;;4.30;;
14191;SDS011;7177;48.572;7.838;2024-01-25T02:49:46;13.90;;;3.40;;
14191;SDS011;7177;48.572;7.838;2024-01-25T02:52:12;18.17;;;4.30;;
14191;SDS011;7177;48.572;7.838;2024-01-25T02:54:37;20.40;;;4.30;;
14191;SDS011;7177;48.572;7.838;2024-01-25T02:57:03;16.00;;;3.93;;
14191;SDS011;7177;48.572;7.838;2024-01-25T02:59:29;13.13;;;3.53;;
14191;SDS011;7177;48.572;7.838;2024-01-25T03:01:55;17.00;;;3.80;;
14191;SDS011;7177;48.572;7.838;2024-01-25T03:04:21;16.93;;;3.60;;
14191;SDS011;7177;48.572;7.838;2024-01-25T03:06:47;18.00;;;4.37;;
14191;SDS011;7177;48.572;7.838;2024-01-25T03:09:12;12.63;;;3.70;;
14191;SDS011;7177;48.572;7.838;2024-01-25T03:11:38;17.67;;;4.33;;
14191;SDS011;7177;48.572;7.838;2024-01-25T03:14:03;13.60;;;4.17;;
14191;SDS011;7177;48.572;7.838;2024-01-25T03:16:29;12.50;;;3.43;;
14191;SDS011;7177;48.572;7.838;2024-01-25T03:18:55;13.43;;;3.50;;
14191;SDS011;7177;48.572;7.838;2024-01-25T03:21:20;11.53;;;3.20;;
14191;SDS011;7177;48.572;7.838;2024-01-25T03:23:46;11.53;;;3.77;;
14191;SDS011;7177;48.572;7.838;2024-01-25T03:26:11;12.17;;;3.77;;
14191;SDS011;7177;48.572;7.838;2024-01-25T03:28:37;21.30;;;3.40;;
14191;SDS011;7177;48.572;7.838;2024-01-25T03:31:04;10.60;;;3.10;;
14191;SDS011;7177;48.572;7.838;2024-01-25T03:33:30;14.83;;;3.63;;
14191;SDS011;7177;48.572;7.838;2024-01-25T03:35:57;11.57;;;3.23;;
14191;SDS011;7177;48.572;7.838;2024-01-25T03:38:27;8.33;;;3.07;;
14191;SDS011;7177;48.572;7.838;2024-01-25T03:40:52;11.30;;;3.00;;
14191;SDS011;7177;48.572;7.838;2024-01-25T03:43:19;9.77;;;3.03;;
14191;SDS011;7177;48.572;7.838;2024-01-25T03:45:44;8.10;;;2.80;;
14191;SDS011;7177;48.572;7.838;2024-01-25T03:48:10;9.20;;;2.53;;
14191;SDS011;7177;48.572;7.838;2024-01-25T03:50:35;8.90;;;2.70;;
14191;SDS011;7177;48.572;7.838;2024-01-25T03:53:01;8.10;;;2.90;;
14191;SDS011;7177;48.572;7.838;2024-01-25T03:55:26;9.53;;;2.93;;
14191;SDS011;7177;48.572;7.838;2024-01-25T03:57:52;13.83;;;3.40;;
14191;SDS011;7177;48.572;7.838;2024-01-25T04:00:17;13.57;;;3.50;;
14191;SDS011;7177;48.572;7.838;2024-01-25T04:02:43;14.77;;;3.43;;
14191;SDS011;7177;48.572;7.838;2024-01-25T04:05:09;18.27;;;4.30;;
14191;SDS011;7177;48.572;7.838;2024-01-25T04:07:35;18.47;;;5.00;;
14191;SDS011;7177;48.572;7.838;2024-01-25T04:10:00;8.87;;;3.90;;
14191;SDS011;7177;48.572;7.838;2024-01-25T04:12:26;12.33;;;6.20;;
14191;SDS011;7177;48.572;7.838;2024-01-25T04:14:52;37.70;;;17.00;;
14191;SDS011;7177;48.572;7.838;2024-01-25T04:17:17;16.53;;;6.63;;
14191;SDS011;7177;48.572;7.838;2024-01-25T04:19:43;14.47;;;4.27;;
14191;SDS011;7177;48.572;7.838;2024-01-25T04:22:08;15.13;;;4.80;;
14191;SDS011;7177;48.572;7.838;2024-01-25T04:24:34;18.67;;;5.03;;
14191;SDS011;7177;48.572;7.838;2024-01-25T04:26:59;20.60;;;5.17;;
14191;SDS011;7177;48.572;7.838;2024-01-25T04:29:25;18.07;;;4.30;;
14191;SDS011;7177;48.572;7.838;2024-01-25T04:31:50;17.43;;;4.73;;
14191;SDS011;7177;48.572;7.838;2024-01-25T04:34:16;27.87;;;5.30;;
14191;SDS011;7177;48.572;7.838;2024-01-25T04:36:42;14.83;;;4.17;;
14191;SDS011;7177;48.572;7.838;2024-01-25T04:39:08;14.73;;;4.37;;
14191;SDS011;7177;48.572;7.838;2024-01-25T04:41:33;21.87;;;4.93;;
14191;SDS011;7177;48.572;7.838;2024-01-25T04:43:59;17.27;;;5.03;;
14191;SDS011;7177;48.572;7.838;2024-01-25T04:46:24;12.50;;;3.67;;
14191;SDS011;7177;48.572;7.838;2024-01-25T04:48:51;15.70;;;4.57;;
14191;SDS011;7177;48.572;7.838;2024-01-25T04:51:17;14.43;;;4.80;;
14191;SDS011;7177;48.572;7.838;2024-01-25T04:53:45;15.93;;;4.50;;
14191;SDS011;7177;48.572;7.838;2024-01-25T04:56:10;16.17;;;3.63;;
14191;SDS011;7177;48.572;7.838;2024-01-25T04:58:36;16.27;;;4.00;;
14191;SDS011;7177;48.572;7.838;2024-01-25T05:01:02;15.43;;;3.70;;
14191;SDS011;7177;48.572;7.838;2024-01-25T05:03:27;17.87;;;4.20;;
14191;SDS011;7177;48.572;7.838;2024-01-25T05:05:53;9.63;;;3.63;;
14191;SDS011;7177;48.572;7.838;2024-01-25T05:08:18;11.97;;;3.60;;
14191;SDS011;7177;48.572;7.838;2024-01-25T05:10:44;18.67;;;4.03;;
14191;SDS011;7177;48.572;7.838;2024-01-25T05:13:09;14.63;;;3.20;;
14191;SDS011;7177;48.572;7.838;2024-01-25T05:15:35;15.87;;;3.40;;
14191;SDS011;7177;48.572;7.838;2024-01-25T05:18:04;15.03;;;3.77;;
14191;SDS011;7177;48.572;7.838;2024-01-25T05:20:30;22.80;;;4.30;;
14191;SDS011;7177;48.572;7.838;2024-01-25T05:23:01;14.67;;;3.87;;
14191;SDS011;7177;48.572;7.838;2024-01-25T05:25:28;19.13;;;4.00;;
14191;SDS011;7177;48.572;7.838;2024-01-25T05:27:54;14.37;;;3.47;;
14191;SDS011;7177;48.572;7.838;2024-01-25T05:30:21;10.30;;;3.17;;
14191;SDS011;7177;48.572;7.838;2024-01-25T05:32:46;22.07;;;4.80;;
14191;SDS011;7177;48.572;7.838;2024-01-25T05:35:14;15.53;;;3.70;;
14191;SDS011;7177;48.572;7.838;2024-01-25T05:37:40;16.13;;;4.23;;
14191;SDS011;7177;48.572;7.838;2024-01-25T05:40:06;15.87;;;4.27;;
14191;SDS011;7177;48.572;7.838;2024-01-25T05:42:32;13.10;;;3.70;;
14191;SDS011;7177;48.572;7.838;2024-01-25T05:44:58;12.10;;;3.60;;
14191;SDS011;7177;48.572;7.838;2024-01-25T05:47:23;10.87;;;3.40;;
14191;SDS011;7177;48.572;7.838;2024-01-25T05:49:49;8.77;;;2.93;;
14191;SDS011;7177;48.572;7.838;2024-01-25T05:52:14;14.57;;;4.03;;
14191;SDS011;7177;48.572;7.838;2024-01-25T05:54:40;13.90;;;3.70;;
14191;SDS011;7177;48.572;7.838;2024-01-25T05:57:06;12.07;;;3.07;;
14191;SDS011;7177;48.572;7.838;2024-01-25T05:59:31;8.57;;;2.90;;
14191;SDS011;7177;48.572;7.838;2024-01-25T06:01:57;10.67;;;2.80;;
14191;SDS011;7177;48.572;7.838;2024-01-25T06:04:22;10.00;;;3.03;;
14191;SDS011;7177;48.572;7.838;2024-01-25T06:06:48;13.37;;;3.57;;
14191;SDS011;7177;48.572;7.838;2024-01-25T06:09:13;10.90;;;3.40;;
14191;SDS011;7177;48.572;7.838;2024-01-25T06:11:40;9.23;;;3.50;;
14191;SDS011;7177;48.572;7.838;2024-01-25T06:14:06;13.10;;;2.97;;
14191;SDS011;7177;48.572;7.838;2024-01-25T06:16:31;11.20;;;3.37;;
14191;SDS011;7177;48.572;7.838;2024-01-25T06:18:56;13.70;;;3.37;;
14191;SDS011;7177;48.572;7.838;2024-01-25T06:21:23;7.83;;;3.23;;
14191;SDS011;7177;48.572;7.838;2024-01-25T06:23:49;12.40;;;3.50;;
14191;SDS011;7177;48.572;7.838;2024-01-25T06:26:14;12.13;;;3.83;;
14191;SDS011;7177;48.572;7.838;2024-01-25T06:28:40;14.37;;;3.93;;
14191;SDS011;7177;48.572;7.838;2024-01-25T06:31:06;14.73;;;4.00;;
14191;SDS011;7177;48.572;7.838;2024-01-25T06:33:31;12.73;;;3.40;;
14191;SDS011;7177;48.572;7.838;2024-01-25T06:35:57;14.30;;;4.47;;
14191;SDS011;7177;48.572;7.838;2024-01-25T06:38:23;22.57;;;5.00;;
14191;SDS011;7177;48.572;7.838;2024-01-25T06:40:48;11.03;;;4.13;;
14191;SDS011;7177;48.572;7.838;2024-01-25T06:43:14;15.93;;;4.40;;
14191;SDS011;7177;48.572;7.838;2024-01-25T06:45:39;15.47;;;5.00;;
14191;SDS011;7177;48.572;7.838;2024-01-25T06:48:05;12.03;;;4.00;;
14191;SDS011;7177;48.572;7.838;2024-01-25T06:50:33;16.17;;;4.33;;
14191;SDS011;7177;48.572;7.838;2024-01-25T06:52:59;11.00;;;4.20;;
14191;SDS011;7177;48.572;7.838;2024-01-25T06:55:24;15.60;;;4.33;;
14191;SDS011;7177;48.572;7.838;2024-01-25T06:57:50;12.80;;;4.47;;
14191;SDS011;7177;48.572;7.838;2024-01-25T07:00:15;15.60;;;4.40;;
14191;SDS011;7177;48.572;7.838;2024-01-25T07:02:41;16.43;;;4.70;;
14191;SDS011;7177;48.572;7.838;2024-01-25T07:05:07;11.70;;;4.90;;
14191;SDS011;7177;48.572;7.838;2024-01-25T07:07:33;14.67;;;4.43;;
14191;SDS011;7177;48.572;7.838;2024-01-25T07:09:59;15.03;;;4.07;;
14191;SDS011;7177;48.572;7.838;2024-01-25T07:12:25;22.30;;;5.53;;
14191;SDS011;7177;48.572;7.838;2024-01-25T07:14:50;15.20;;;4.70;;
14191;SDS011;7177;48.572;7.838;2024-01-25T07:17:16;14.23;;;4.87;;
14191;SDS011;7177;48.572;7.838;2024-01-25T07:19:41;12.93;;;5.57;;
14191;SDS011;7177;48.572;7.838;2024-01-25T07:22:07;15.20;;;4.97;;
14191;SDS011;7177;48.572;7.838;2024-01-25T07:24:32;16.50;;;5.90;;
14191;SDS011;7177;48.572;7.838;2024-01-25T07:26:58;16.97;;;5.03;;
14191;SDS011;7177;48.572;7.838;2024-01-25T07:29:24;16.17;;;5.33;;
14191;SDS011;7177;48.572;7.838;2024-01-25T07:31:49;13.70;;;6.20;;
14191;SDS011;7177;48.572;7.838;2024-01-25T07:34:15;11.67;;;5.90;;
14191;SDS011;7177;48.572;7.838;2024-01-25T07:36:40;23.17;;;9.97;;
14191;SDS011;7177;48.572;7.838;2024-01-25T07:39:06;23.27;;;11.30;;
14191;SDS011;7177;48.572;7.838;2024-01-25T07:41:31;20.87;;;13.50;;
14191;SDS011;7177;48.572;7.838;2024-01-25T07:43:57;17.13;;;7.37;;
14191;SDS011;7177;48.572;7.838;2024-01-25T07:46:22;15.13;;;6.47;;
14191;SDS011;7177;48.572;7.838;2024-01-25T07:48:49;13.03;;;5.67;;
14191;SDS011;7177;48.572;7.838;2024-01-25T07:51:15;13.87;;;6.97;;
14191;SDS011;7177;48.572;7.838;2024-01-25T07:53:40;16.60;;;6.60;;
14191;SDS011;7177;48.572;7.838;2024-01-25T07:56:09;12.30;;;6.17;;
14191;SDS011;7177;48.572;7.838;2024-01-25T07:58:36;16.67;;;6.90;;
14191;SDS011;7177;48.572;7.838;2024-01-25T08:01:02;14.50;;;6.97;;
14191;SDS011;7177;48.572;7.838;2024-01-25T08:03:29;9.77;;;5.87;;
14191;SDS011;7177;48.572;7.838;2024-01-25T08:05:55;10.03;;;5.50;;
14191;SDS011;7177;48.572;7.838;2024-01-25T08:08:20;10.40;;;5.73;;
14191;SDS011;7177;48.572;7.838;2024-01-25T08:10:46;19.63;;;5.57;;
14191;SDS011;7177;48.572;7.838;2024-01-25T08:13:12;14.23;;;5.17;;
14191;SDS011;7177;48.572;7.838;2024-01-25T08:15:38;12.73;;;5.63;;
14191;SDS011;7177;48.572;7.838;2024-01-25T08:18:03;11.43;;;4.77;;
14191;SDS011;7177;48.572;7.838;2024-01-25T08:20:29;11.37;;;4.70;;
14191;SDS011;7177;48.572;7.838;2024-01-25T08:22:55;9.03;;;4.23;;
14191;SDS011;7177;48.572;7.838;2024-01-25T08:25:20;10.43;;;4.40;;
14191;SDS011;7177;48.572;7.838;2024-01-25T08:27:46;11.77;;;5.03;;
14191;SDS011;7177;48.572;7.838;2024-01-25T08:30:11;5.67;;;4.00;;
14191;SDS011;7177;48.572;7.838;2024-01-25T08:32:37;7.57;;;4.00;;
14191;SDS011;7177;48.572;7.838;2024-01-25T08:35:03;9.97;;;3.50;;
14191;SDS011;7177;48.572;7.838;2024-01-25T08:37:28;11.83;;;3.40;;
14191;SDS011;7177;48.572;7.838;2024-01-25T08:39:54;7.93;;;3.07;;
14191;SDS011;7177;48.572;7.838;2024-01-25T08:42:20;7.13;;;3.40;;
14191;SDS011;7177;48.572;7.838;2024-01-25T08:44:46;6.40;;;2.97;;
14191;SDS011;7177;48.572;7.838;2024-01-25T08:47:14;8.77;;;3.60;;
14191;SDS011;7177;48.572;7.838;2024-01-25T08:49:42;9.60;;;2.93;;
14191;SDS011;7177;48.572;7.838;2024-01-25T08:52:07;4.33;;;2.73;;
14191;SDS011;7177;48.572;7.838;2024-01-25T08:54:33;7.97;;;2.60;;
14191;SDS011;7177;48.572;7.838;2024-01-25T08:56:59;7.70;;;2.50;;
14191;SDS011;7177;48.572;7.838;2024-01-25T08:59:24;2.43;;;1.97;;
14191;SDS011;7177;48.572;7.838;2024-01-25T09:01:51;5.47;;;2.50;;
14191;SDS011;7177;48.572;7.838;2024-01-25T09:04:17;5.00;;;2.47;;
14191;SDS011;7177;48.572;7.838;2024-01-25T09:06:43;6.27;;;2.93;;
14191;SDS011;7177;48.572;7.838;2024-01-25T09:09:09;5.77;;;2.43;;
14191;SDS011;7177;48.572;7.838;2024-01-25T09:11:35;7.67;;;2.80;;
14191;SDS011;7177;48.572;7.838;2024-01-25T09:14:01;8.60;;;2.90;;
14191;SDS011;7177;48.572;7.838;2024-01-25T09:16:27;5.67;;;2.57;;
14191;SDS011;7177;48.572;7.838;2024-01-25T09:18:52;6.00;;;3.00;;
14191;SDS011;7177;48.572;7.838;2024-01-25T09:21:18;7.10;;;2.40;;
14191;SDS011;7177;48.572;7.838;2024-01-25T09:23:43;4.77;;;2.60;;
14191;SDS011;7177;48.572;7.838;2024-01-25T09:26:09;5.33;;;2.60;;
14191;SDS011;7177;48.572;7.838;2024-01-25T09:28:34;7.93;;;3.13;;
14191;SDS011;7177;48.572;7.838;2024-01-25T09:30:59;6.00;;;2.90;;
14191;SDS011;7177;48.572;7.838;2024-01-25T09:33:25;4.23;;;2.50;;
14191;SDS011;7177;48.572;7.838;2024-01-25T09:35:50;14.10;;;3.03;;
14191;SDS011;7177;48.572;7.838;2024-01-25T09:38:16;6.37;;;2.70;;
14191;SDS011;7177;48.572;7.838;2024-01-25T09:40:42;5.07;;;2.70;;
14191;SDS011;7177;48.572;7.838;2024-01-25T09:43:07;5.33;;;2.57;;
14191;SDS011;7177;48.572;7.838;2024-01-25T09:45:33;6.77;;;2.63;;
14191;SDS011;7177;48.572;7.838;2024-01-25T09:47:59;8.33;;;2.70;;
14191;SDS011;7177;48.572;7.838;2024-01-25T09:50:29;8.30;;;2.60;;
14191;SDS011;7177;48.572;7.838;2024-01-25T09:52:58;7.77;;;2.50;;
14191;SDS011;7177;48.572;7.838;2024-01-25T09:55:25;6.43;;;2.40;;
14191;SDS011;7177;48.572;7.838;2024-01-25T09:57:54;5.87;;;2.20;;
14191;SDS011;7177;48.572;7.838;2024-01-25T10:00:21;4.70;;;2.17;;
14191;SDS011;7177;48.572;7.838;2024-01-25T10:02:48;8.40;;;2.87;;
14191;SDS011;7177;48.572;7.838;2024-01-25T10:05:17;7.07;;;2.10;;
14191;SDS011;7177;48.572;7.838;2024-01-25T10:07:46;5.53;;;2.50;;
14191;SDS011;7177;48.572;7.838;2024-01-25T10:10:12;4.17;;;2.00;;
14191;SDS011;7177;48.572;7.838;2024-01-25T10:12:39;4.93;;;1.93;;
14191;SDS011;7177;48.572;7.838;2024-01-25T10:15:06;6.17;;;2.20;;
14191;SDS011;7177;48.572;7.838;2024-01-25T10:17:32;4.40;;;1.87;;
14191;SDS011;7177;48.572;7.838;2024-01-25T10:19:58;5.47;;;2.47;;
14191;SDS011;7177;48.572;7.838;2024-01-25T10:22:24;8.17;;;2.77;;
14191;SDS011;7177;48.572;7.838;2024-01-25T10:24:49;8.13;;;2.57;;
14191;SDS011;7177;48.572;7.838;2024-01-25T10:27:15;6.37;;;3.07;;
14191;SDS011;7177;48.572;7.838;2024-01-25T10:29:41;4.37;;;2.47;;
14191;SDS011;7177;48.572;7.838;2024-01-25T10:32:08;8.23;;;2.70;;
14191;SDS011;7177;48.572;7.838;2024-01-25T10:34:37;6.83;;;2.57;;
14191;SDS011;7177;48.572;7.838;2024-01-25T10:37:03;4.13;;;2.13;;
14191;SDS011;7177;48.572;7.838;2024-01-25T10:39:31;6.40;;;2.33;;
14191;SDS011;7177;48.572;7.838;2024-01-25T10:41:58;8.83;;;2.57;;
14191;SDS011;7177;48.572;7.838;2024-01-25T10:44:24;8.13;;;2.47;;
14191;SDS011;7177;48.572;7.838;2024-01-25T10:46:49;4.83;;;2.53;;
14191;SDS011;7177;48.572;7.838;2024-01-25T10:49:18;9.70;;;2.43;;
14191;SDS011;7177;48.572;7.838;2024-01-25T10:51:44;7.90;;;2.63;;
14191;SDS011;7177;48.572;7.838;2024-01-25T10:54:14;5.13;;;2.83;;
14191;SDS011;7177;48.572;7.838;2024-01-25T10:56:43;9.27;;;2.70;;
14191;SDS011;7177;48.572;7.838;2024-01-25T10:59:11;8.00;;;2.50;;
14191;SDS011;7177;48.572;7.838;2024-01-25T11:01:36;8.43;;;2.80;;
14191;SDS011;7177;48.572;7.838;2024-01-25T11:04:02;7.47;;;2.57;;
14191;SDS011;7177;48.572;7.838;2024-01-25T11:06:28;6.00;;;2.13;;
14191;SDS011;7177;48.572;7.838;2024-01-25T11:09:06;4.57;;;2.20;;
14191;SDS011;7177;48.572;7.838;2024-01-25T11:11:32;6.60;;;2.67;;
14191;SDS011;7177;48.572;7.838;2024-01-25T11:14:00;7.23;;;3.00;;
14191;SDS011;7177;48.572;7.838;2024-01-25T11:16:29;7.03;;;2.27;;
14191;SDS011;7177;48.572;7.838;2024-01-25T11:18:56;5.87;;;2.10;;
14191;SDS011;7177;48.572;7.838;2024-01-25T11:21:38;10.87;;;2.63;;
14191;SDS011;7177;48.572;7.838;2024-01-25T11:24:05;6.63;;;2.10;;
14191;SDS011;7177;48.572;7.838;2024-01-25T11:26:36;6.00;;;2.33;;
14191;SDS011;7177;48.572;7.838;2024-01-25T11:29:03;10.27;;;2.87;;
14191;SDS011;7177;48.572;7.838;2024-01-25T11:31:28;4.50;;;2.17;;
14191;SDS011;7177;48.572;7.838;2024-01-25T11:33:57;7.23;;;2.47;;
14191;SDS011;7177;48.572;7.838;2024-01-25T11:36:26;6.90;;;2.47;;
14191;SDS011;7177;48.572;7.838;2024-01-25T11:38:52;6.77;;;2.00;;
14191;SDS011;7177;48.572;7.838;2024-01-25T11:41:19;5.90;;;1.80;;
14191;SDS011;7177;48.572;7.838;2024-01-25T11:43:44;5.87;;;2.23;;
14191;SDS011;7177;48.572;7.838;2024-01-25T11:46:10;9.77;;;5.13;;
14191;SDS011;7177;48.572;7.838;2024-01-25T11:48:42;8.27;;;3.97;;
14191;SDS011;7177;48.572;7.838;2024-01-25T11:51:09;2.93;;;1.93;;
14191;SDS011;7177;48.572;7.838;2024-01-25T11:53:38;2.03;;;1.53;;
14191;SDS011;7177;48.572;7.838;2024-01-25T11:56:09;3.37;;;1.57;;
14191;SDS011;7177;48.572;7.838;2024-01-25T11:58:37;3.43;;;1.87;;
14191;SDS011;7177;48.572;7.838;2024-01-25T12:01:05;4.23;;;1.90;;
14191;SDS011;7177;48.572;7.838;2024-01-25T12:03:33;6.23;;;2.27;;
14191;SDS011;7177;48.572;7.838;2024-01-25T12:06:00;5.67;;;2.13;;
14191;SDS011;7177;48.572;7.838;2024-01-25T12:08:26;3.40;;;1.90;;
14191;SDS011;7177;48.572;7.838;2024-01-25T12:11:01;4.40;;;2.20;;
14191;SDS011;7177;48.572;7.838;2024-01-25T12:13:34;4.13;;;2.40;;
14191;SDS011;7177;48.572;7.838;2024-01-25T12:16:01;6.47;;;2.53;;
14191;SDS011;7177;48.572;7.838;2024-01-25T12:18:28;3.87;;;2.20;;
14191;SDS011;7177;48.572;7.838;2024-01-25T12:20:54;3.93;;;2.40;;
14191;SDS011;7177;48.572;7.838;2024-01-25T12:23:22;4.87;;;2.50;;
14191;SDS011;7177;48.572;7.838;2024-01-25T12:25:48;4.73;;;2.40;;
14191;SDS011;7177;48.572;7.838;2024-01-25T12:28:13;3.53;;;1.90;;
14191;SDS011;7177;48.572;7.838;2024-01-25T12:30:39;5.43;;;2.33;;
14191;SDS011;7177;48.572;7.838;2024-01-25T12:33:04;3.47;;;2.10;;
14191;SDS011;7177;48.572;7.838;2024-01-25T12:35:30;5.70;;;2.87;;
14191;SDS011;7177;48.572;7.838;2024-01-25T12:37:55;6.13;;;2.53;;
14191;SDS011;7177;48.572;7.838;2024-01-25T12:40:21;6.87;;;2.53;;
14191;SDS011;7177;48.572;7.838;2024-01-25T12:42:46;4.67;;;2.40;;
14191;SDS011;7177;48.572;7.838;2024-01-25T12:45:12;3.47;;;2.00;;
14191;SDS011;7177;48.572;7.838;2024-01-25T12:47:37;5.97;;;2.57;;
14191;SDS011;7177;48.572;7.838;2024-01-25T12:50:03;5.30;;;3.03;;
14191;SDS011;7177;48.572;7.838;2024-01-25T12:52:29;4.93;;;3.30;;
14191;SDS011;7177;48.572;7.838;2024-01-25T12:54:54;7.03;;;3.00;;
14191;SDS011;7177;48.572;7.838;2024-01-25T12:57:21;7.53;;;2.80;;
14191;SDS011;7177;48.572;7.838;2024-01-25T12:59:46;4.93;;;2.70;;
14191;SDS011;7177;48.572;7.838;2024-01-25T13:02:12;3.40;;;2.33;;
14191;SDS011;7177;48.572;7.838;2024-01-25T13:04:38;6.07;;;2.50;;
14191;SDS011;7177;48.572;7.838;2024-01-25T13:07:03;5.53;;;2.50;;
14191;SDS011;7177;48.572;7.838;2024-01-25T13:09:29;3.50;;;2.03;;
14191;SDS011;7177;48.572;7.838;2024-01-25T13:11:58;4.63;;;2.40;;
14191;SDS011;7177;48.572;7.838;2024-01-25T13:14:24;2.63;;;2.07;;
14191;SDS011;7177;48.572;7.838;2024-01-25T13:16:49;3.90;;;2.40;;
14191;SDS011;7177;48.572;7.838;2024-01-25T13:19:15;4.30;;;2.20;;
14191;SDS011;7177;48.572;7.838;2024-01-25T13:21:40;2.70;;;2.03;;
14191;SDS011;7177;48.572;7.838;2024-01-25T13:24:06;5.90;;;2.63;;
14191;SDS011;7177;48.572;7.838;2024-01-25T13:26:32;4.83;;;2.47;;
14191;SDS011;7177;48.572;7.838;2024-01-25T13:28:58;2.23;;;2.03;;
14191;SDS011;7177;48.572;7.838;2024-01-25T13:31:24;4.20;;;2.63;;
14191;SDS011;7177;48.572;7.838;2024-01-25T13:33:49;4.77;;;2.43;;
14191;SDS011;7177;48.572;7.838;2024-01-25T13:36:15;5.40;;;2.50;;
14191;SDS011;7177;48.572;7.838;2024-01-25T13:38:40;4.83;;;2.23;;
14191;SDS011;7177;48.572;7.838;2024-01-25T13:41:06;3.63;;;1.80;;
14191;SDS011;7177;48.572;7.838;2024-01-25T13:43:31;3.13;;;2.00;;
14191;SDS011;7177;48.572;7.838;2024-01-25T13:45:57;3.50;;;1.93;;
14191;SDS011;7177;48.572;7.838;2024-01-25T13:48:23;3.27;;;2.00;;
14191;SDS011;7177;48.572;7.838;2024-01-25T13:50:48;4.07;;;1.93;;
14191;SDS011;7177;48.572;7.838;2024-01-25T13:53:14;4.77;;;2.07;;
14191;SDS011;7177;48.572;7.838;2024-01-25T13:55:39;3.07;;;2.20;;
14191;SDS011;7177;48.572;7.838;2024-01-25T13:58:05;3.37;;;2.07;;
14191;SDS011;7177;48.572;7.838;2024-01-25T14:00:31;3.03;;;2.20;;
14191;SDS011;7177;48.572;7.838;2024-01-25T14:02:56;3.63;;;2.70;;
14191;SDS011;7177;48.572;7.838;2024-01-25T14:05:21;4.87;;;2.50;;
14191;SDS011;7177;48.572;7.838;2024-01-25T14:07:47;4.30;;;2.10;;
14191;SDS011;7177;48.572;7.838;2024-01-25T14:10:12;5.13;;;1.90;;
14191;SDS011;7177;48.572;7.838;2024-01-25T14:12:38;3.70;;;2.10;;
14191;SDS011;7177;48.572;7.838;2024-01-25T14:15:04;3.83;;;2.03;;
14191;SDS011;7177;48.572;7.838;2024-01-25T14:17:29;5.27;;;2.17;;
14191;SDS011;7177;48.572;7.838;2024-01-25T14:19:55;5.77;;;2.17;;
14191;SDS011;7177;48.572;7.838;2024-01-25T14:22:20;12.07;;;2.43;;
14191;SDS011;7177;48.572;7.838;2024-01-25T14:24:46;5.13;;;1.93;;
14191;SDS011;7177;48.572;7.838;2024-01-25T14:27:12;2.20;;;1.90;;
14191;SDS011;7177;48.572;7.838;2024-01-25T14:29:38;5.10;;;2.20;;
14191;SDS011;7177;48.572;7.838;2024-01-25T14:32:04;6.30;;;2.20;;
14191;SDS011;7177;48.572;7.838;2024-01-25T14:34:29;2.97;;;2.00;;
14191;SDS011;7177;48.572;7.838;2024-01-25T14:36:55;5.30;;;2.40;;
14191;SDS011;7177;48.572;7.838;2024-01-25T14:39:20;2.73;;;1.97;;
14191;SDS011;7177;48.572;7.838;2024-01-25T14:41:46;5.50;;;2.63;;
14191;SDS011;7177;48.572;7.838;2024-01-25T14:44:12;4.70;;;2.37;;
14191;SDS011;7177;48.572;7.838;2024-01-25T14:46:37;3.93;;;2.07;;
14191;SDS011;7177;48.572;7.838;2024-01-25T14:49:03;3.00;;;2.20;;